Time;durP1;ratioP1;P1;durP2;ratioP2;P2;SDS_P1;SDS_P2;PMS_P1;PMS_P2;Temp;Humidity;BMP_temperature;BMP_pressure;BME280_temperature;BME280_humidity;BME280_pressure;Samples;Min_cycle;Max_cycle;Signal;HPM_P1;HPM_P2
2022/07/11 00:02:01;;;;;;;;;;;;;;;18.25;56.67;97129.38;6298791;28;20397;-65
2022/07/11 00:05:02;;;;;;;;;;;;;;;18.25;56.42;97137.34;6298470;28;20416;-64
2022/07/11 00:08:07;;;;;;;;;;;;;;;18.22;56.50;97137.66;6298740;28;19932;-64
2022/07/11 00:11:10;;;;;;;;;;;;;;;18.17;56.25;97142.53;6297324;28;19921;-65
2022/07/11 00:14:12;;;;;;;;;;;;;;;18.16;56.49;97143.53;6298396;28;19931;-65
2022/07/11 00:17:13;;;;;;;;;;;;;;;18.13;56.00;97141.16;6298115;28;19978;-65
2022/07/11 00:20:14;;;;;;;;;;;;;;;18.14;56.50;97142.81;6298397;28;20014;-65
2022/07/11 00:23:18;;;;;;;;;;;;;;;18.13;56.48;97141.16;6298234;28;19920;-64
2022/07/11 00:26:22;;;;;;;;;;;;;;;18.17;55.99;97158.53;6297888;28;20334;-65
2022/07/11 00:29:23;;;;;;;;;;;;;;;18.16;56.41;97157.69;6297585;28;19966;-65
2022/07/11 00:32:24;;;;;;;;;;;;;;;18.18;56.71;97157.56;6298249;28;19931;-65
2022/07/11 00:35:28;;;;;;;;;;;;;;;18.18;56.82;97166.38;6297101;28;19935;-64
2022/07/11 00:38:31;;;;;;;;;;;;;;;18.21;56.53;97170.59;6297712;28;19925;-66
2022/07/11 00:41:35;;;;;;;;;;;;;;;18.24;57.40;97172.97;6297881;28;20019;-65
2022/07/11 00:44:38;;;;;;;;;;;;;;;18.23;56.71;97173.97;6297624;28;19925;-65
2022/07/11 00:47:44;;;;;;;;;;;;;;;18.21;57.06;97175.94;6297754;28;19924;-65
2022/07/11 00:50:48;;;;;;;;;;;;;;;18.20;57.16;97184.03;6297629;28;19924;-65
2022/07/11 00:53:55;;;;;;;;;;;;;;;18.24;57.12;97186.28;6297292;28;19925;-65
2022/07/11 00:56:56;;;;;;;;;;;;;;;18.26;57.54;97181.69;6296741;28;19925;-65
2022/07/11 00:59:59;;;;;;;;;;;;;;;18.23;57.27;97184.63;6297471;28;19924;-64
2022/07/11 01:03:00;;;;;;;;;;;;;;;18.25;57.23;97182.63;6296987;28;20383;-66
2022/07/11 01:06:04;;;;;;;;;;;;;;;18.26;57.35;97181.69;6297261;28;19925;-65
2022/07/11 01:09:08;;;;;;;;;;;;;;;18.26;57.38;97179.03;6297386;28;19924;-65
2022/07/11 01:12:11;;;;;;;;;;;;;;;18.29;57.36;97189.38;6297218;28;19924;-65
2022/07/11 01:15:16;;;;;;;;;;;;;;;18.30;56.90;97184.91;6296644;28;19924;-66
2022/07/11 01:18:19;;;;;;;;;;;;;;;18.33;56.77;97188.13;6296542;28;19924;-66
2022/07/11 01:21:30;;;;;;;;;;;;;;;18.37;56.78;97186.00;6296541;28;19925;-64
2022/07/11 01:24:32;;;;;;;;;;;;;;;18.37;57.33;97196.66;6296881;28;19920;-64
2022/07/11 01:27:34;;;;;;;;;;;;;;;18.36;57.25;97201.16;6296169;28;20310;-65
2022/07/11 01:30:37;;;;;;;;;;;;;;;18.37;57.12;97202.84;6296279;28;20011;-65
2022/07/11 01:33:43;;;;;;;;;;;;;;;18.38;57.34;97201.84;6296650;28;19924;-65
2022/07/11 01:36:44;;;;;;;;;;;;;;;18.43;56.70;97195.25;6296402;28;19931;-65
2022/07/11 01:39:47;;;;;;;;;;;;;;;18.45;56.68;97203.97;6296381;28;20073;-64
2022/07/11 01:42:51;;;;;;;;;;;;;;;18.47;57.02;97191.34;6296025;28;19971;-65
2022/07/11 01:45:52;;;;;;;;;;;;;;;18.46;56.87;97200.34;6296047;28;19947;-65
2022/07/11 01:48:56;;;;;;;;;;;;;;;18.54;56.87;97197.78;6296569;28;19925;-65
2022/07/11 01:51:57;;;;;;;;;;;;;;;18.57;56.46;97203.69;6296028;28;19925;-65
2022/07/11 01:54:58;;;;;;;;;;;;;;;18.60;56.62;97205.22;6295099;28;19930;-64
2022/07/11 01:57:59;;;;;;;;;;;;;;;18.63;56.72;97207.63;6295471;28;20305;-65
2022/07/11 02:01:00;;;;;;;;;;;;;;;18.64;56.87;97203.94;6295646;28;20001;-65
2022/07/11 02:04:05;;;;;;;;;;;;;;;18.64;56.50;97203.94;6295561;28;19925;-66
2022/07/11 02:07:11;;;;;;;;;;;;;;;18.70;56.41;97203.38;6295642;28;19928;-65
2022/07/11 02:10:12;;;;;;;;;;;;;;;18.79;56.31;97202.56;6295518;28;19924;-66
2022/07/11 02:13:14;;;;;;;;;;;;;;;18.92;55.93;97212.09;6294415;28;19930;-65
2022/07/11 02:16:15;;;;;;;;;;;;;;;19.02;55.90;97213.75;6295067;28;19927;-64
2022/07/11 02:19:19;;;;;;;;;;;;;;;19.14;55.82;97211.75;6295271;28;19928;-65
2022/07/11 02:22:22;;;;;;;;;;;;;;;19.25;55.26;97216.94;6295427;28;19924;-66
2022/07/11 02:25:24;;;;;;;;;;;;;;;19.34;55.07;97217.03;6295257;28;19921;-65
2022/07/11 02:28:29;;;;;;;;;;;;;;;19.39;55.10;97215.63;6295392;28;20025;-65
2022/07/11 02:31:33;;;;;;;;;;;;;;;19.50;54.90;97211.91;6295340;28;19932;-65
2022/07/11 02:34:39;;;;;;;;;;;;;;;19.59;54.42;97227.06;6297883;28;19963;-65
2022/07/11 02:37:45;;;;;;;;;;;;;;;19.68;54.21;97215.50;6303752;28;19924;-65
2022/07/11 02:40:47;;;;;;;;;;;;;;;19.77;54.44;97220.97;6303649;28;20023;-65
2022/07/11 02:43:53;;;;;;;;;;;;;;;19.81;54.48;97222.31;6303569;28;20020;-65
2022/07/11 02:46:54;;;;;;;;;;;;;;;19.89;54.33;97223.25;6303362;28;19931;-65
2022/07/11 02:49:57;;;;;;;;;;;;;;;20.00;54.47;97216.88;6303476;28;19928;-65
2022/07/11 02:52:58;;;;;;;;;;;;;;;20.15;54.24;97223.38;6303028;28;20369;-65
2022/07/11 02:56:03;;;;;;;;;;;;;;;20.26;53.75;97229.50;6303576;28;19932;-66
2022/07/11 02:59:04;;;;;;;;;;;;;;;20.37;53.54;97231.97;6302311;28;19928;-65
2022/07/11 03:02:05;;;;;;;;;;;;;;;20.53;53.23;97232.16;6303103;28;19924;-65
2022/07/11 03:05:07;;;;;;;;;;;;;;;20.57;53.22;97233.50;6303051;28;19996;-65
2022/07/11 03:08:10;;;;;;;;;;;;;;;20.69;52.74;97230.59;6303230;28;19928;-64
2022/07/11 03:11:13;;;;;;;;;;;;;;;20.85;52.85;97230.75;6303455;28;19924;-65
2022/07/11 03:14:19;;;;;;;;;;;;;;;20.94;52.45;97227.13;6302934;28;19924;-65
2022/07/11 03:17:21;;;;;;;;;;;;;;;20.99;52.26;97226.69;6302716;28;19924;-65
2022/07/11 03:20:22;;;;;;;;;;;;;;;21.08;51.87;97231.09;6302642;28;19924;-65
2022/07/11 03:23:23;;;;;;;;;;;;;;;21.24;51.45;97235.72;6302746;28;20016;-65
2022/07/11 03:26:27;;;;;;;;;;;;;;;21.37;51.31;97238.00;6302235;28;19924;-65
2022/07/11 03:29:30;;;;;;;;;;;;;;;21.53;50.93;97236.25;6303025;28;19925;-65
2022/07/11 03:32:31;;;;;;;;;;;;;;;21.68;50.54;97246.38;6302354;28;19925;-64
2022/07/11 03:35:41;;;;;;;;;;;;;;;21.81;50.32;97249.44;6302601;28;19951;-64
2022/07/11 03:38:47;;;;;;;;;;;;;;;21.97;50.07;97248.69;6302180;28;20218;-65
2022/07/11 03:41:48;;;;;;;;;;;;;;;22.06;49.63;97250.38;6302376;28;19924;-65
2022/07/11 03:44:53;;;;;;;;;;;;;;;22.21;49.39;97249.78;6302714;28;19925;-65
2022/07/11 03:47:57;;;;;;;;;;;;;;;22.30;49.18;97260.34;6297020;28;19924;-65
2022/07/11 03:51:01;;;;;;;;;;;;;;;22.46;48.94;97264.09;6298644;28;19925;-65
2022/07/11 03:54:04;;;;;;;;;;;;;;;22.53;48.57;97265.09;6298674;28;19957;-65
2022/07/11 03:57:08;;;;;;;;;;;;;;;22.73;48.35;97265.63;6280226;28;20082;-65
2022/07/11 04:00:13;;;;;;;;;;;;;;;23.06;47.48;97266.53;6298747;28;19925;-66
2022/07/11 04:03:17;;;;;;;;;;;;;;;23.52;46.82;97264.09;6298579;28;19924;-65
2022/07/11 04:06:20;;;;;;;;;;;;;;;23.77;46.51;97261.38;6298597;28;19924;-65
2022/07/11 04:09:23;;;;;;;;;;;;;;;23.91;46.09;97266.03;6298054;28;19924;-66
2022/07/11 04:12:26;;;;;;;;;;;;;;;24.10;45.85;97275.56;6298397;28;19928;-65
2022/07/11 04:15:32;;;;;;;;;;;;;;;24.43;45.55;97268.19;6298585;28;19924;-65
2022/07/11 04:18:33;;;;;;;;;;;;;;;24.79;44.74;97273.00;6297432;28;20318;-65
2022/07/11 04:21:35;;;;;;;;;;;;;;;25.08;44.60;97274.94;6298317;28;19936;-66
2022/07/11 04:24:38;;;;;;;;;;;;;;;25.21;43.82;97269.00;6298283;28;19924;-65
2022/07/11 04:27:39;;;;;;;;;;;;;;;25.18;44.14;97274.75;6297544;28;19997;-65
2022/07/11 04:30:41;;;;;;;;;;;;;;;25.25;43.60;97275.66;6297308;28;19966;-65
2022/07/11 04:33:41;;;;;;;;;;;;;;;25.28;43.37;97269.94;6297175;28;19924;-65
2022/07/11 04:36:45;;;;;;;;;;;;;;;25.33;43.27;97278.28;6297585;28;19987;-66
2022/07/11 04:39:48;;;;;;;;;;;;;;;25.44;43.25;97271.63;6297404;28;19966;-65
2022/07/11 04:42:52;;;;;;;;;;;;;;;25.62;42.66;97272.13;6296965;28;20301;-65
2022/07/11 04:45:55;;;;;;;;;;;;;;;25.91;42.43;97275.88;6296862;28;19924;-65
2022/07/11 04:48:56;;;;;;;;;;;;;;;27.09;39.87;97274.75;6297032;28;20409;-66
2022/07/11 04:51:57;;;;;;;;;;;;;;;29.51;35.97;97280.06;6296046;28;20806;-65
2022/07/11 04:54:58;;;;;;;;;;;;;;;32.14;31.91;97285.31;6297059;28;20278;-66
2022/07/11 04:58:00;;;;;;;;;;;;;;;34.67;29.65;97294.94;6296222;28;20316;-65
2022/07/11 05:01:01;;;;;;;;;;;;;;;37.22;27.84;97294.38;6296558;28;19928;-66
2022/07/11 05:04:07;;;;;;;;;;;;;;;39.68;23.96;97296.41;6278390;28;19983;-66
2022/07/11 05:07:09;;;;;;;;;;;;;;;41.90;22.88;97296.78;6296222;28;19936;-65
2022/07/11 05:10:10;;;;;;;;;;;;;;;43.83;20.15;97296.41;6296541;28;20015;-65
2022/07/11 05:13:13;;;;;;;;;;;;;;;45.14;19.22;97301.59;6296371;28;20073;-65
2022/07/11 05:16:18;;;;;;;;;;;;;;;46.50;18.45;97303.13;6296315;28;19929;-65
2022/07/11 05:19:21;;;;;;;;;;;;;;;47.92;17.36;97301.78;6296719;28;19928;-65
2022/07/11 05:22:26;;;;;;;;;;;;;;;48.85;12.65;97300.88;6296928;28;20344;-65
2022/07/11 05:25:32;;;;;;;;;;;;;;;50.20;15.50;97309.91;6296818;28;19928;-65
2022/07/11 05:28:36;;;;;;;;;;;;;;;51.02;13.37;97306.19;6296794;28;20057;-65
2022/07/11 05:31:45;;;;;;;;;;;;;;;51.91;12.94;97305.16;6296768;28;19924;-65
2022/07/11 05:34:46;;;;;;;;;;;;;;;52.89;12.15;97306.44;6295583;28;19924;-65
2022/07/11 05:37:48;;;;;;;;;;;;;;;53.91;11.48;97311.03;6295248;28;20021;-64
2022/07/11 05:40:51;;;;;;;;;;;;;;;54.02;12.84;97300.78;6296095;28;19931;-65
2022/07/11 05:43:56;;;;;;;;;;;;;;;54.71;11.04;97301.56;6295684;28;19928;-65
2022/07/11 05:47:01;;;;;;;;;;;;;;;55.25;10.68;97298.69;6295735;28;19931;-66
2022/07/11 05:50:04;;;;;;;;;;;;;;;54.85;9.41;97291.69;6295738;28;20015;-64
2022/07/11 05:53:13;;;;;;;;;;;;;;;54.60;10.61;97292.09;6296290;28;19924;-64
2022/07/11 05:56:19;;;;;;;;;;;;;;;52.72;10.85;97288.00;6295743;28;19924;-65
2022/07/11 05:59:22;;;;;;;;;;;;;;;49.72;11.54;97277.84;6296001;28;20421;-64
2022/07/11 06:02:24;;;;;;;;;;;;;;;49.21;12.44;97274.34;6277927;28;20043;-65
2022/07/11 06:05:31;;;;;;;;;;;;;;;46.75;14.13;97266.19;6295728;28;20390;-65
2022/07/11 06:08:41;;;;;;;;;;;;;;;44.87;15.22;97261.63;6294894;28;19924;-65
2022/07/11 06:11:44;;;;;;;;;;;;;;;42.25;16.97;97252.44;6294819;28;20301;-65
2022/07/11 06:14:48;;;;;;;;;;;;;;;40.20;17.95;97245.66;6295500;28;20318;-65
2022/07/11 06:17:49;;;;;;;;;;;;;;;38.96;18.91;97230.31;6294721;28;19921;-65
2022/07/11 06:20:50;;;;;;;;;;;;;;;38.68;18.56;97234.34;6294795;28;19948;-67
2022/07/11 06:23:54;;;;;;;;;;;;;;;38.46;18.57;97231.00;6295764;28;19929;-66
2022/07/11 06:27:00;;;;;;;;;;;;;;;42.33;14.81;97243.53;6295451;28;19932;-65
2022/07/11 06:30:01;;;;;;;;;;;;;;;44.20;13.78;97250.28;6295025;28;19932;-65
2022/07/11 06:33:10;;;;;;;;;;;;;;;44.09;13.78;97250.47;6295386;28;19924;-66
2022/07/11 06:36:13;;;;;;;;;;;;;;;42.65;14.59;97244.75;6295108;28;20004;-65
2022/07/11 06:39:17;;;;;;;;;;;;;;;41.32;14.98;97246.97;6294649;28;19929;-64
2022/07/11 06:42:21;;;;;;;;;;;;;;;41.51;14.75;97249.88;6295170;28;19925;-64
2022/07/11 06:45:23;;;;;;;;;;;;;;;41.07;15.27;97242.47;6293889;28;20407;-66
2022/07/11 06:48:27;;;;;;;;;;;;;;;43.19;14.20;97249.81;6294760;28;19924;-65
2022/07/11 06:51:32;;;;;;;;;;;;;;;47.46;11.32;97248.38;6295023;28;19924;-67
2022/07/11 06:54:36;;;;;;;;;;;;;;;50.97;9.60;97267.19;6294090;28;19931;-66
2022/07/11 06:57:38;;;;;;;;;;;;;;;53.39;8.74;97279.44;6294247;28;19924;-66
2022/07/11 07:00:40;;;;;;;;;;;;;;;52.49;9.18;97277.41;6294795;28;19928;-65
2022/07/11 07:03:45;;;;;;;;;;;;;;;51.88;8.74;97268.59;6294419;28;19925;-64
2022/07/11 07:06:49;;;;;;;;;;;;;;;53.09;8.78;97259.53;6277080;28;19920;-65
2022/07/11 07:09:50;;;;;;;;;;;;;;;53.92;7.98;97273.22;6276486;28;19956;-64
2022/07/11 07:12:56;;;;;;;;;;;;;;;55.84;7.97;97274.41;6295152;28;19925;-65
2022/07/11 07:15:58;;;;;;;;;;;;;;;56.91;6.09;97272.50;6295177;28;19978;-65
2022/07/11 07:19:03;;;;;;;;;;;;;;;57.14;7.81;97277.84;6294834;28;20386;-65
2022/07/11 07:22:08;;;;;;;;;;;;;;;57.33;7.13;97265.44;6280945;28;20377;-64
2022/07/11 07:25:10;;;;;;;;;;;;;;;57.52;6.94;97269.16;6298705;28;20386;-65
2022/07/11 07:28:15;;;;;;;;;;;;;;;57.53;6.58;97265.94;6299566;28;19975;-64
2022/07/11 07:31:20;;;;;;;;;;;;;;;57.86;6.52;97268.84;6299458;28;20425;-65
2022/07/11 07:34:22;;;;;;;;;;;;;;;57.91;5.90;97269.25;6298580;28;19925;-65
2022/07/11 07:37:26;;;;;;;;;;;;;;;58.45;5.31;97275.75;6298754;28;19930;-65
2022/07/11 07:40:29;;;;;;;;;;;;;;;58.75;5.65;97268.03;6298598;28;19924;-65
2022/07/11 07:43:31;;;;;;;;;;;;;;;58.64;5.36;97265.22;6299382;28;19924;-65
2022/07/11 07:46:35;;;;;;;;;;;;;;;59.05;5.53;97276.88;6298576;28;19924;-65
2022/07/11 07:49:39;;;;;;;;;;;;;;;59.68;4.72;97270.50;6299719;28;19924;-65
2022/07/11 07:52:43;;;;;;;;;;;;;;;59.45;4.93;97271.84;6311737;28;19924;-64
2022/07/11 07:55:46;;;;;;;;;;;;;;;59.90;4.97;97277.69;6321670;28;19923;-65
2022/07/11 07:58:51;;;;;;;;;;;;;;;60.51;5.13;97282.09;6311052;28;19929;-65
2022/07/11 08:01:56;;;;;;;;;;;;;;;60.92;4.56;97278.44;6311978;28;19947;-64
2022/07/11 08:05:02;;;;;;;;;;;;;;;60.96;4.32;97282.03;6309938;28;19933;-65
2022/07/11 08:08:06;;;;;;;;;;;;;;;60.25;4.44;97280.69;6310775;28;19931;-65
2022/07/11 08:11:10;;;;;;;;;;;;;;;59.49;4.67;97275.47;6308777;28;19924;-65
2022/07/11 08:14:13;;;;;;;;;;;;;;;58.50;5.24;97277.38;6318139;28;19990;-65
2022/07/11 08:17:16;;;;;;;;;;;;;;;55.57;6.28;97260.41;6280845;28;20329;-65
2022/07/11 08:20:19;;;;;;;;;;;;;;;52.74;7.29;97237.84;6298302;28;19924;-65
2022/07/11 08:23:22;;;;;;;;;;;;;;;54.42;6.47;97246.78;6298198;28;19924;-65
2022/07/11 08:26:25;;;;;;;;;;;;;;;55.50;5.65;97251.88;6297607;28;19929;-65
2022/07/11 08:29:28;;;;;;;;;;;;;;;55.29;6.22;97243.97;6298043;28;19924;-65
2022/07/11 08:32:31;;;;;;;;;;;;;;;55.18;6.49;97248.66;6279418;28;19924;-64
2022/07/11 08:35:35;;;;;;;;;;;;;;;54.33;7.02;97249.06;6297697;28;20378;-65
2022/07/11 08:38:39;;;;;;;;;;;;;;;54.17;6.34;97245.53;6297824;28;19928;-65
2022/07/11 08:41:43;;;;;;;;;;;;;;;54.17;6.59;97240.72;6297965;28;19924;-64
2022/07/11 08:44:45;;;;;;;;;;;;;;;53.65;6.87;97225.28;6263489;28;19925;-64
2022/07/11 08:47:50;;;;;;;;;;;;;;;52.27;7.35;97224.69;6297519;28;19950;-64
2022/07/11 08:50:53;;;;;;;;;;;;;;;51.58;7.84;97222.09;6297535;28;19928;-65
2022/07/11 08:53:57;;;;;;;;;;;;;;;50.80;8.14;97215.03;6297663;28;20408;-65
2022/07/11 08:57:00;;;;;;;;;;;;;;;50.09;8.60;97219.16;6297277;28;19928;-65
2022/07/11 09:00:08;;;;;;;;;;;;;;;49.89;8.57;97216.09;6297161;28;19925;-65
2022/07/11 09:03:13;;;;;;;;;;;;;;;48.99;8.77;97214.03;6297042;28;20007;-64
2022/07/11 09:06:16;;;;;;;;;;;;;;;48.45;9.54;97209.13;6297179;28;19928;-64
2022/07/11 09:09:19;;;;;;;;;;;;;;;48.56;9.03;97215.97;6297034;28;19924;-63
2022/07/11 09:12:23;;;;;;;;;;;;;;;48.44;9.41;97213.09;6296745;28;19924;-65
2022/07/11 09:15:39;;;;;;;;;;;;;;;47.39;9.93;97207.06;6297123;28;19924;-65
2022/07/11 09:18:42;;;;;;;;;;;;;;;47.00;10.33;97208.06;6296970;28;19924;-65
2022/07/11 09:25:25;;;;;;;;;;;;;;;45.61;10.78;97213.19;6296886;28;19924;-65
2022/07/11 09:28:28;;;;;;;;;;;;;;;45.83;10.88;97218.69;6296445;28;19924;-65
2022/07/11 09:31:32;;;;;;;;;;;;;;;45.85;10.81;97210.03;6296580;28;19924;-64
2022/07/11 09:34:34;;;;;;;;;;;;;;;44.94;11.62;97208.47;6296383;28;19924;-64
2022/07/11 09:37:44;;;;;;;;;;;;;;;43.58;12.01;97215.38;6296465;28;19924;-65
2022/07/11 09:40:48;;;;;;;;;;;;;;;42.58;12.71;97206.41;6296145;28;19921;-65
2022/07/11 09:43:51;;;;;;;;;;;;;;;41.85;13.75;97216.66;6294267;28;20305;-64
2022/07/11 09:46:55;;;;;;;;;;;;;;;41.17;14.37;97212.03;6296327;28;20298;-65
2022/07/11 09:49:59;;;;;;;;;;;;;;;40.37;15.00;97215.81;6296194;28;19928;-64
2022/07/11 09:53:05;;;;;;;;;;;;;;;39.78;15.53;97210.22;6296063;28;20378;-65
2022/07/11 09:56:09;;;;;;;;;;;;;;;39.48;15.83;97217.38;6295826;28;20381;-65
2022/07/11 09:59:13;;;;;;;;;;;;;;;39.06;16.12;97215.72;6296083;28;19924;-66
2022/07/11 10:02:18;;;;;;;;;;;;;;;39.26;16.38;97212.97;6295894;28;19924;-66
2022/07/11 10:05:22;;;;;;;;;;;;;;;39.34;16.38;97224.56;6295924;28;20402;-67
2022/07/11 10:08:25;;;;;;;;;;;;;;;40.46;15.29;97218.78;6295698;28;20390;-68
2022/07/11 10:11:30;;;;;;;;;;;;;;;41.03;14.80;97216.53;6296053;28;20298;-68
2022/07/11 10:14:37;;;;;;;;;;;;;;;40.73;15.02;97229.41;6278389;28;19930;-65
2022/07/11 10:17:40;;;;;;;;;;;;;;;39.83;15.91;97221.19;6295571;28;19988;-64
2022/07/11 10:20:55;;;;;;;;;;;;;;;39.00;16.72;97223.16;6295212;28;19932;-65
2022/07/11 10:24:07;;;;;;;;;;;;;;;38.70;16.73;97217.56;6295509;28;19925;-66
2022/07/11 10:27:25;;;;;;;;;;;;;;;39.33;16.13;97217.41;6295522;28;20065;-65
2022/07/11 10:30:48;;;;;;;;;;;;;;;40.90;14.81;97223.50;6295524;28;19925;-65
2022/07/11 10:34:03;;;;;;;;;;;;;;;41.67;14.09;97217.38;6274231;28;19932;-66
2022/07/11 10:37:08;;;;;;;;;;;;;;;41.53;14.28;97221.94;6295554;28;19924;-65
2022/07/11 10:40:12;;;;;;;;;;;;;;;41.89;13.73;97220.47;6277847;28;19931;-64
2022/07/11 10:43:15;;;;;;;;;;;;;;;42.79;13.04;97218.84;6293989;28;19928;-66
2022/07/11 10:46:21;;;;;;;;;;;;;;;43.87;12.61;97215.09;6295380;28;19931;-66
2022/07/11 10:49:24;;;;;;;;;;;;;;;45.17;11.87;97218.47;6295155;28;19924;-65
2022/07/11 10:52:32;;;;;;;;;;;;;;;45.99;11.36;97221.91;6295275;28;20027;-65
2022/07/11 10:55:37;;;;;;;;;;;;;;;45.99;11.16;97223.88;6296702;28;19929;-65
2022/07/11 10:58:47;;;;;;;;;;;;;;;45.33;11.45;97227.22;6300344;28;19946;-66
2022/07/11 11:02:10;;;;;;;;;;;;;;;44.76;11.89;97219.41;6300331;28;20022;-65
2022/07/11 11:05:34;;;;;;;;;;;;;;;44.76;11.66;97215.78;6299768;28;19977;-65
2022/07/11 11:08:43;;;;;;;;;;;;;;;44.87;11.27;97211.66;6299685;28;20397;-66
2022/07/11 11:11:50;;;;;;;;;;;;;;;44.66;11.24;97207.69;6298932;28;19960;-65
2022/07/11 11:15:12;;;;;;;;;;;;;;;43.85;11.50;97205.44;6299757;28;20402;-64
2022/07/11 11:18:28;;;;;;;;;;;;;;;43.81;11.83;97205.25;6299442;28;19977;-65
2022/07/11 11:21:31;;;;;;;;;;;;;;;43.75;11.64;97200.13;6281684;28;19924;-64
2022/07/11 11:24:35;;;;;;;;;;;;;;;43.65;11.51;97196.38;6299500;28;20313;-65
2022/07/11 11:27:37;;;;;;;;;;;;;;;43.64;11.60;97199.47;6299162;28;19924;-65
2022/07/11 11:30:52;;;;;;;;;;;;;;;43.56;11.67;97198.22;6299331;28;20390;-65
2022/07/11 11:33:57;;;;;;;;;;;;;;;43.39;11.75;97189.66;6299098;28;19924;-65
2022/07/11 11:37:01;;;;;;;;;;;;;;;42.99;12.52;97189.19;6299248;28;20301;-66
2022/07/11 11:40:04;;;;;;;;;;;;;;;42.12;13.07;97190.38;6299162;28;20390;-65
2022/07/11 11:43:07;;;;;;;;;;;;;;;41.86;13.25;97198.94;6299212;28;19924;-65
2022/07/11 11:46:12;;;;;;;;;;;;;;;41.70;13.56;97181.72;6299243;28;20302;-65
2022/07/11 11:49:14;;;;;;;;;;;;;;;41.23;13.72;97182.44;6298612;28;19924;-65
2022/07/11 11:52:19;;;;;;;;;;;;;;;40.85;13.92;97179.38;6298585;28;19924;-65
2022/07/11 11:55:22;;;;;;;;;;;;;;;40.67;14.14;97180.09;6298524;28;19924;-65
2022/07/11 11:58:26;;;;;;;;;;;;;;;40.00;14.68;97139.03;6298766;28;19924;-64
2022/07/11 12:01:31;;;;;;;;;;;;;;;39.65;15.16;97160.06;6298229;28;19924;-65
2022/07/11 12:04:34;;;;;;;;;;;;;;;39.54;15.26;97163.94;6298794;28;19924;-65
2022/07/11 12:07:38;;;;;;;;;;;;;;;39.61;15.35;97169.19;6297373;28;19928;-66
2022/07/11 12:10:42;;;;;;;;;;;;;;;39.67;15.25;97168.88;6298416;28;19924;-65
2022/07/11 12:13:46;;;;;;;;;;;;;;;39.70;15.18;97167.50;6297942;28;20036;-65
2022/07/11 12:16:49;;;;;;;;;;;;;;;39.86;14.87;97165.53;6297915;28;19921;-66
2022/07/11 12:19:52;;;;;;;;;;;;;;;39.83;14.96;97157.84;6298014;28;19925;-66
2022/07/11 12:22:55;;;;;;;;;;;;;;;39.70;15.00;97157.31;6297942;28;20106;-66
2022/07/11 12:25:58;;;;;;;;;;;;;;;39.69;15.04;97165.84;6298166;28;19921;-65
2022/07/11 12:29:16;;;;;;;;;;;;;;;38.96;15.52;97163.47;6297900;28;19924;-65
2022/07/11 12:32:20;;;;;;;;;;;;;;;37.81;16.50;97154.28;6297849;28;20386;-65
2022/07/11 12:35:24;;;;;;;;;;;;;;;37.44;17.22;97159.81;6297475;28;19925;-65
2022/07/11 12:38:46;;;;;;;;;;;;;;;37.39;17.10;97152.38;6298067;28;19925;-66
2022/07/11 12:41:50;;;;;;;;;;;;;;;37.73;16.45;97158.34;6297650;28;20313;-64
2022/07/11 12:45:11;;;;;;;;;;;;;;;37.83;16.87;97151.28;6297644;28;20317;-66
2022/07/11 12:48:14;;;;;;;;;;;;;;;37.28;16.80;97154.25;6297290;28;19920;-66
2022/07/11 12:51:26;;;;;;;;;;;;;;;37.06;17.05;97151.59;6297272;28;19928;-66
2022/07/11 12:54:31;;;;;;;;;;;;;;;36.78;17.73;97154.63;6279605;28;19925;-65
2022/07/11 12:57:35;;;;;;;;;;;;;;;36.77;17.51;97158.44;6297177;28;19924;-65
2022/07/11 13:00:44;;;;;;;;;;;;;;;36.65;17.74;97153.13;6297068;28;19956;-67
2022/07/11 13:03:47;;;;;;;;;;;;;;;35.95;18.11;97150.16;6295945;28;20305;-65
2022/07/11 13:10:11;;;;;;;;;;;;;;;35.02;19.29;97146.31;6296733;28;19924;-64
2022/07/11 13:13:15;;;;;;;;;;;;;;;34.62;19.54;97141.81;6296721;28;19928;-65
2022/07/11 13:16:19;;;;;;;;;;;;;;;34.03;20.07;97146.63;6296498;28;19924;-65
2022/07/11 13:19:23;;;;;;;;;;;;;;;33.70;20.43;97140.81;6295951;28;19925;-65
2022/07/11 13:22:27;;;;;;;;;;;;;;;33.37;20.50;97152.31;6296340;28;19931;-65
2022/07/11 13:25:30;;;;;;;;;;;;;;;33.13;21.09;97153.41;6296724;28;19924;-65
2022/07/11 13:28:34;;;;;;;;;;;;;;;32.76;21.04;97157.13;6296265;28;20382;-65
2022/07/11 13:31:36;;;;;;;;;;;;;;;32.50;21.04;97158.38;6296361;28;20385;-64
2022/07/11 13:34:39;;;;;;;;;;;;;;;32.57;21.14;97164.53;6277668;28;20317;-66
2022/07/11 13:37:42;;;;;;;;;;;;;;;33.00;21.16;97168.91;6295963;28;20287;-65
2022/07/11 13:40:46;;;;;;;;;;;;;;;33.69;20.20;97171.06;6296033;28;20393;-66
2022/07/11 13:43:49;;;;;;;;;;;;;;;34.04;20.34;97172.88;6278077;28;19925;-65
2022/07/11 13:46:52;;;;;;;;;;;;;;;33.94;20.50;97185.28;6296181;28;19921;-66
2022/07/11 13:49:56;;;;;;;;;;;;;;;33.84;20.26;97185.03;6295968;28;20402;-66
2022/07/11 13:53:00;;;;;;;;;;;;;;;33.89;20.42;97187.06;6295649;28;19920;-65
2022/07/11 13:56:04;;;;;;;;;;;;;;;33.88;20.59;97186.22;6295322;28;20408;-65
2022/07/11 13:59:08;;;;;;;;;;;;;;;33.82;20.44;97194.53;6295481;28;19931;-66
2022/07/11 14:02:11;;;;;;;;;;;;;;;33.93;20.92;97194.50;6295393;28;19925;-66
2022/07/11 14:05:15;;;;;;;;;;;;;;;33.96;20.80;97198.66;6295575;28;19932;-66
2022/07/11 14:08:19;;;;;;;;;;;;;;;33.79;20.83;97193.13;6295877;28;20279;-66
2022/07/11 14:11:23;;;;;;;;;;;;;;;33.44;21.50;97191.22;6295647;28;19924;-65
2022/07/11 14:14:26;;;;;;;;;;;;;;;33.18;21.67;97197.13;6295619;28;19924;-66
2022/07/11 14:17:30;;;;;;;;;;;;;;;33.05;22.04;97209.09;6295428;28;19924;-66
2022/07/11 14:20:33;;;;;;;;;;;;;;;32.79;22.48;97210.31;6295230;28;19924;-67
2022/07/11 14:23:36;;;;;;;;;;;;;;;32.58;22.31;97214.38;6295203;28;19924;-66
2022/07/11 14:26:40;;;;;;;;;;;;;;;32.46;22.68;97211.63;6295359;28;19925;-65
2022/07/11 14:29:44;;;;;;;;;;;;;;;32.49;22.56;97208.44;6294940;28;19948;-65
2022/07/11 14:32:46;;;;;;;;;;;;;;;32.47;22.58;97205.13;6294979;28;20401;-65
2022/07/11 14:35:49;;;;;;;;;;;;;;;32.65;22.46;97210.50;6295145;28;19924;-66
2022/07/11 14:38:53;;;;;;;;;;;;;;;32.90;22.45;97204.06;6295295;28;19924;-65
2022/07/11 14:41:57;;;;;;;;;;;;;;;33.00;22.41;97217.97;6295024;28;19930;-65
2022/07/11 14:45:01;;;;;;;;;;;;;;;32.99;22.49;97216.31;6294090;28;19925;-66
2022/07/11 14:48:06;;;;;;;;;;;;;;;32.82;23.15;97209.84;6294888;28;19924;-66
2022/07/11 14:51:10;;;;;;;;;;;;;;;32.61;23.79;97212.06;6295075;28;19924;-65
2022/07/11 14:54:14;;;;;;;;;;;;;;;32.34;23.98;97208.00;6294641;28;19924;-65
2022/07/11 14:57:17;;;;;;;;;;;;;;;32.03;24.14;97211.75;6295023;28;20398;-67
2022/07/11 15:00:21;;;;;;;;;;;;;;;31.77;25.04;97203.63;6294671;28;20297;-65
2022/07/11 15:03:37;;;;;;;;;;;;;;;31.58;25.49;97204.66;6294921;28;19925;-67
2022/07/11 15:13:26;;;;;;;;;;;;;;;31.20;25.53;97224.66;6276892;28;19924;-65
2022/07/11 15:16:30;;;;;;;;;;;;;;;31.21;25.36;97225.50;6294789;28;19924;-66
2022/07/11 15:19:33;;;;;;;;;;;;;;;31.20;25.35;97232.81;6294989;28;19925;-65
2022/07/11 15:22:38;;;;;;;;;;;;;;;31.12;25.33;97238.53;6294834;28;19924;-65
2022/07/11 15:25:41;;;;;;;;;;;;;;;31.10;25.54;97240.63;6294335;28;19931;-66
2022/07/11 15:28:46;;;;;;;;;;;;;;;31.10;25.45;97255.03;6293920;28;19925;-66
2022/07/11 15:31:49;;;;;;;;;;;;;;;30.99;26.04;97255.75;6294191;28;19928;-65
2022/07/11 15:34:53;;;;;;;;;;;;;;;30.84;25.90;97253.34;6294241;28;19924;-65
2022/07/11 15:38:00;;;;;;;;;;;;;;;30.65;26.38;97259.69;6294374;28;19925;-65
2022/07/11 15:41:03;;;;;;;;;;;;;;;30.41;26.49;97259.41;6294945;28;19930;-64
2022/07/11 15:44:07;;;;;;;;;;;;;;;30.21;27.06;97258.66;6298966;28;19925;-65
2022/07/11 15:47:10;;;;;;;;;;;;;;;30.03;27.23;97261.19;6298884;28;19928;-65
2022/07/11 15:50:13;;;;;;;;;;;;;;;29.82;27.34;97255.00;6298450;28;19924;-66
2022/07/11 15:53:16;;;;;;;;;;;;;;;29.63;27.84;97262.13;6298742;28;19928;-65
2022/07/11 15:56:20;;;;;;;;;;;;;;;29.40;28.04;97259.00;6298750;28;19924;-65
2022/07/11 15:59:23;;;;;;;;;;;;;;;29.25;28.36;97265.47;6298371;28;19924;-64
2022/07/11 16:02:27;;;;;;;;;;;;;;;29.04;28.44;97262.94;6298302;28;20409;-66
2022/07/11 16:05:30;;;;;;;;;;;;;;;28.84;28.88;97262.88;6298663;28;19924;-66
2022/07/11 16:08:33;;;;;;;;;;;;;;;28.63;28.91;97266.59;6298634;28;20310;-65
2022/07/11 16:11:40;;;;;;;;;;;;;;;28.44;28.89;97268.19;6298191;28;19920;-66
2022/07/11 16:14:44;;;;;;;;;;;;;;;28.30;29.22;97278.09;6298257;28;19924;-65